sensor_id;sensor_type;location;lat;lon;timestamp;pressure;altitude;pressure_sealevel;temperature;humidity
36380;BME280;22411;53.016;18.632;2022-10-29T00:00:37;100981.28;;;14.37;100.00
36380;BME280;22411;53.016;18.632;2022-10-29T00:03:24;100977.63;;;14.40;100.00
36380;BME280;22411;53.016;18.632;2022-10-29T00:05:59;100986.50;;;14.37;100.00
36380;BME280;22411;53.016;18.632;2022-10-29T00:08:26;100979.78;;;14.35;100.00
36380;BME280;22411;53.016;18.632;2022-10-29T00:10:52;100979.28;;;14.30;100.00
36380;BME280;22411;53.016;18.632;2022-10-29T00:13:18;100980.19;;;14.18;100.00
36380;BME280;22411;53.016;18.632;2022-10-29T00:15:44;100982.31;;;14.12;100.00
36380;BME280;22411;53.016;18.632;2022-10-29T00:18:10;100978.75;;;14.02;100.00
36380;BME280;22411;53.016;18.632;2022-10-29T00:20:36;100970.91;;;13.91;100.00
36380;BME280;22411;53.016;18.632;2022-10-29T00:23:02;100972.31;;;13.84;100.00
36380;BME280;22411;53.016;18.632;2022-10-29T00:25:27;100967.00;;;13.85;100.00
36380;BME280;22411;53.016;18.632;2022-10-29T00:27:55;100968.69;;;13.98;100.00
36380;BME280;22411;53.016;18.632;2022-10-29T00:30:21;100974.03;;;14.07;100.00
36380;BME280;22411;53.016;18.632;2022-10-29T00:32:47;100973.31;;;14.05;100.00
36380;BME280;22411;53.016;18.632;2022-10-29T00:35:13;100975.22;;;14.03;100.00
36380;BME280;22411;53.016;18.632;2022-10-29T00:37:39;100967.41;;;14.03;100.00
36380;BME280;22411;53.016;18.632;2022-10-29T00:40:05;100961.25;;;14.04;100.00
36380;BME280;22411;53.016;18.632;2022-10-29T00:42:32;100962.78;;;14.07;100.00
36380;BME280;22411;53.016;18.632;2022-10-29T00:44:57;100957.47;;;14.08;100.00
36380;BME280;22411;53.016;18.632;2022-10-29T00:47:29;100949.41;;;14.11;100.00
36380;BME280;22411;53.016;18.632;2022-10-29T00:50:08;100945.34;;;14.07;100.00
36380;BME280;22411;53.016;18.632;2022-10-29T00:52:38;100949.16;;;14.03;100.00
36380;BME280;22411;53.016;18.632;2022-10-29T00:55:07;100940.13;;;13.96;100.00
36380;BME280;22411;53.016;18.632;2022-10-29T00:57:40;100931.34;;;13.86;100.00
36380;BME280;22411;53.016;18.632;2022-10-29T01:00:06;100936.06;;;13.81;100.00
36380;BME280;22411;53.016;18.632;2022-10-29T01:02:34;100927.69;;;13.77;100.00
36380;BME280;22411;53.016;18.632;2022-10-29T01:05:04;100921.03;;;13.73;100.00
36380;BME280;22411;53.016;18.632;2022-10-29T01:07:31;100925.53;;;13.71;100.00
36380;BME280;22411;53.016;18.632;2022-10-29T01:09:57;100910.94;;;13.69;100.00
36380;BME280;22411;53.016;18.632;2022-10-29T01:20:34;100911.63;;;13.59;100.00
36380;BME280;22411;53.016;18.632;2022-10-29T01:23:33;100898.72;;;13.58;100.00
36380;BME280;22411;53.016;18.632;2022-10-29T01:32:28;100904.56;;;13.62;100.00
36380;BME280;22411;53.016;18.632;2022-10-29T01:41:06;100907.84;;;13.52;100.00
36380;BME280;22411;53.016;18.632;2022-10-29T01:46:10;100895.97;;;13.48;100.00
36380;BME280;22411;53.016;18.632;2022-10-29T01:48:42;100892.19;;;13.41;100.00
36380;BME280;22411;53.016;18.632;2022-10-29T01:51:14;100899.50;;;13.36;100.00
36380;BME280;22411;53.016;18.632;2022-10-29T01:53:44;100888.47;;;13.32;100.00
36380;BME280;22411;53.016;18.632;2022-10-29T01:56:10;100895.47;;;13.32;100.00
36380;BME280;22411;53.016;18.632;2022-10-29T01:58:35;100886.00;;;13.31;100.00
36380;BME280;22411;53.016;18.632;2022-10-29T02:01:22;100892.97;;;13.30;100.00
36380;BME280;22411;53.016;18.632;2022-10-29T02:04:24;100888.72;;;13.29;100.00
36380;BME280;22411;53.016;18.632;2022-10-29T02:12:39;100893.81;;;13.31;100.00
36380;BME280;22411;53.016;18.632;2022-10-29T02:15:32;100893.09;;;13.29;100.00
36380;BME280;22411;53.016;18.632;2022-10-29T02:18:04;100893.81;;;13.31;100.00
36380;BME280;22411;53.016;18.632;2022-10-29T02:20:31;100883.59;;;13.28;100.00
36380;BME280;22411;53.016;18.632;2022-10-29T02:22:57;100887.41;;;13.24;100.00
36380;BME280;22411;53.016;18.632;2022-10-29T02:25:23;100887.50;;;13.22;100.00
36380;BME280;22411;53.016;18.632;2022-10-29T02:27:52;100879.69;;;13.22;100.00
36380;BME280;22411;53.016;18.632;2022-10-29T02:30:18;100880.63;;;13.21;100.00
36380;BME280;22411;53.016;18.632;2022-10-29T02:32:44;100872.91;;;13.20;100.00
36380;BME280;22411;53.016;18.632;2022-10-29T02:35:10;100868.75;;;13.17;100.00
36380;BME280;22411;53.016;18.632;2022-10-29T02:37:36;100869.69;;;13.16;100.00
36380;BME280;22411;53.016;18.632;2022-10-29T02:40:02;100865.44;;;13.15;100.00
36380;BME280;22411;53.016;18.632;2022-10-29T02:42:29;100871.69;;;13.13;100.00
36380;BME280;22411;53.016;18.632;2022-10-29T02:44:55;100880.34;;;13.13;100.00
36380;BME280;22411;53.016;18.632;2022-10-29T02:47:20;100886.38;;;13.14;100.00
36380;BME280;22411;53.016;18.632;2022-10-29T02:49:46;100882.09;;;13.13;100.00
36380;BME280;22411;53.016;18.632;2022-10-29T02:52:12;100879.41;;;13.14;100.00
36380;BME280;22411;53.016;18.632;2022-10-29T02:54:38;100866.47;;;13.13;100.00
36380;BME280;22411;53.016;18.632;2022-10-29T02:57:04;100868.38;;;13.11;100.00
36380;BME280;22411;53.016;18.632;2022-10-29T02:59:31;100873.78;;;13.07;100.00
36380;BME280;22411;53.016;18.632;2022-10-29T03:01:56;100897.31;;;13.06;100.00
36380;BME280;22411;53.016;18.632;2022-10-29T03:04:22;100893.91;;;13.05;100.00
36380;BME280;22411;53.016;18.632;2022-10-29T03:06:48;100881.59;;;13.07;100.00
36380;BME280;22411;53.016;18.632;2022-10-29T03:09:14;100887.53;;;13.09;100.00
36380;BME280;22411;53.016;18.632;2022-10-29T03:11:39;100872.63;;;13.12;100.00
36380;BME280;22411;53.016;18.632;2022-10-29T03:14:05;100883.28;;;13.08;100.00
36380;BME280;22411;53.016;18.632;2022-10-29T03:16:31;100880.75;;;13.07;100.00
36380;BME280;22411;53.016;18.632;2022-10-29T03:18:57;100875.81;;;13.04;100.00
36380;BME280;22411;53.016;18.632;2022-10-29T03:21:23;100876.63;;;13.04;100.00
36380;BME280;22411;53.016;18.632;2022-10-29T03:23:49;100878.63;;;13.01;100.00
36380;BME280;22411;53.016;18.632;2022-10-29T03:26:15;100883.72;;;13.02;100.00
36380;BME280;22411;53.016;18.632;2022-10-29T03:28:41;100882.28;;;12.98;100.00
36380;BME280;22411;53.016;18.632;2022-10-29T03:31:08;100880.97;;;12.93;100.00
36380;BME280;22411;53.016;18.632;2022-10-29T03:33:34;100874.81;;;12.94;100.00
36380;BME280;22411;53.016;18.632;2022-10-29T03:36:03;100876.66;;;12.92;100.00
36380;BME280;22411;53.016;18.632;2022-10-29T03:38:33;100877.25;;;12.84;100.00
36380;BME280;22411;53.016;18.632;2022-10-29T03:41:00;100879.00;;;12.83;100.00
36380;BME280;22411;53.016;18.632;2022-10-29T03:43:26;100876.72;;;12.79;100.00
36380;BME280;22411;53.016;18.632;2022-10-29T03:45:53;100884.53;;;12.79;100.00
36380;BME280;22411;53.016;18.632;2022-10-29T03:48:20;100884.75;;;12.76;100.00
36380;BME280;22411;53.016;18.632;2022-10-29T03:50:56;100878.94;;;12.72;100.00
36380;BME280;22411;53.016;18.632;2022-10-29T03:53:23;100886.75;;;12.72;100.00
36380;BME280;22411;53.016;18.632;2022-10-29T03:55:54;100888.03;;;12.67;100.00
36380;BME280;22411;53.016;18.632;2022-10-29T03:58:20;100887.91;;;12.68;100.00
36380;BME280;22411;53.016;18.632;2022-10-29T04:01:12;100881.38;;;12.63;100.00
36380;BME280;22411;53.016;18.632;2022-10-29T04:03:38;100877.13;;;12.62;100.00
36380;BME280;22411;53.016;18.632;2022-10-29T04:06:11;100878.97;;;12.60;100.00
36380;BME280;22411;53.016;18.632;2022-10-29T04:08:38;100878.38;;;12.56;100.00
36380;BME280;22411;53.016;18.632;2022-10-29T04:11:05;100888.16;;;12.52;100.00
36380;BME280;22411;53.016;18.632;2022-10-29T04:13:32;100895.84;;;12.54;100.00
36380;BME280;22411;53.016;18.632;2022-10-29T04:15:58;100902.16;;;12.63;100.00
36380;BME280;22411;53.016;18.632;2022-10-29T04:18:24;100896.25;;;12.61;100.00
36380;BME280;22411;53.016;18.632;2022-10-29T04:20:50;100895.41;;;12.60;100.00
36380;BME280;22411;53.016;18.632;2022-10-29T04:23:16;100890.81;;;12.64;100.00
36380;BME280;22411;53.016;18.632;2022-10-29T04:25:42;100888.97;;;12.66;100.00
36380;BME280;22411;53.016;18.632;2022-10-29T04:28:08;100893.94;;;12.69;100.00
36380;BME280;22411;53.016;18.632;2022-10-29T04:30:34;100883.31;;;12.72;100.00
36380;BME280;22411;53.016;18.632;2022-10-29T04:33:00;100887.69;;;12.71;100.00
36380;BME280;22411;53.016;18.632;2022-10-29T04:35:27;100883.91;;;12.75;100.00
36380;BME280;22411;53.016;18.632;2022-10-29T04:37:53;100888.41;;;12.73;100.00
36380;BME280;22411;53.016;18.632;2022-10-29T04:40:22;100893.28;;;12.78;100.00
36380;BME280;22411;53.016;18.632;2022-10-29T04:42:49;100887.13;;;12.79;100.00
36380;BME280;22411;53.016;18.632;2022-10-29T04:45:16;100878.81;;;12.87;100.00
36380;BME280;22411;53.016;18.632;2022-10-29T04:47:43;100885.66;;;12.88;100.00
36380;BME280;22411;53.016;18.632;2022-10-29T04:50:09;100892.28;;;12.92;100.00
36380;BME280;22411;53.016;18.632;2022-10-29T04:52:35;100894.06;;;12.91;100.00
36380;BME280;22411;53.016;18.632;2022-10-29T04:55:01;100900.94;;;12.92;100.00
36380;BME280;22411;53.016;18.632;2022-10-29T04:57:27;100899.03;;;12.94;100.00
36380;BME280;22411;53.016;18.632;2022-10-29T04:59:53;100897.97;;;12.97;100.00
36380;BME280;22411;53.016;18.632;2022-10-29T05:02:19;100902.28;;;12.98;100.00
36380;BME280;22411;53.016;18.632;2022-10-29T05:04:45;100899.66;;;12.98;100.00
36380;BME280;22411;53.016;18.632;2022-10-29T05:07:11;100909.84;;;13.01;100.00
36380;BME280;22411;53.016;18.632;2022-10-29T05:09:37;100906.72;;;12.96;100.00
36380;BME280;22411;53.016;18.632;2022-10-29T05:12:03;100900.59;;;12.97;100.00
36380;BME280;22411;53.016;18.632;2022-10-29T05:14:29;100903.19;;;12.97;100.00
36380;BME280;22411;53.016;18.632;2022-10-29T05:16:55;100906.66;;;12.97;100.00
36380;BME280;22411;53.016;18.632;2022-10-29T05:19:21;100904.88;;;12.98;100.00
36380;BME280;22411;53.016;18.632;2022-10-29T05:21:47;100906.34;;;12.89;100.00
36380;BME280;22411;53.016;18.632;2022-10-29T05:24:13;100897.59;;;12.90;100.00
36380;BME280;22411;53.016;18.632;2022-10-29T05:26:39;100898.66;;;12.88;100.00
36380;BME280;22411;53.016;18.632;2022-10-29T05:29:05;100903.75;;;12.89;100.00
36380;BME280;22411;53.016;18.632;2022-10-29T05:31:31;100913.03;;;12.80;100.00
36380;BME280;22411;53.016;18.632;2022-10-29T05:33:56;100911.16;;;12.82;100.00
36380;BME280;22411;53.016;18.632;2022-10-29T05:36:23;100911.06;;;12.84;100.00
36380;BME280;22411;53.016;18.632;2022-10-29T05:38:48;100910.84;;;12.87;100.00
36380;BME280;22411;53.016;18.632;2022-10-29T05:41:14;100910.84;;;12.87;100.00
36380;BME280;22411;53.016;18.632;2022-10-29T05:43:40;100911.34;;;12.92;100.00
36380;BME280;22411;53.016;18.632;2022-10-29T05:46:06;100914.16;;;12.89;100.00
36380;BME280;22411;53.016;18.632;2022-10-29T05:48:32;100920.81;;;12.93;100.00
36380;BME280;22411;53.016;18.632;2022-10-29T05:50:58;100911.44;;;12.91;100.00
36380;BME280;22411;53.016;18.632;2022-10-29T05:53:24;100906.97;;;12.93;100.00
36380;BME280;22411;53.016;18.632;2022-10-29T05:55:50;100906.03;;;12.94;100.00
36380;BME280;22411;53.016;18.632;2022-10-29T05:58:15;100905.06;;;12.95;100.00
36380;BME280;22411;53.016;18.632;2022-10-29T06:00:43;100906.03;;;12.94;100.00
36380;BME280;22411;53.016;18.632;2022-10-29T06:03:15;100905.19;;;12.93;100.00
36380;BME280;22411;53.016;18.632;2022-10-29T06:05:42;100906.66;;;12.97;100.00
36380;BME280;22411;53.016;18.632;2022-10-29T06:08:08;100905.38;;;13.03;100.00
36380;BME280;22411;53.016;18.632;2022-10-29T06:10:34;100907.72;;;13.06;100.00
36380;BME280;22411;53.016;18.632;2022-10-29T06:13:00;100915.22;;;13.11;100.00
36380;BME280;22411;53.016;18.632;2022-10-29T06:15:26;100917.31;;;13.05;100.00
36380;BME280;22411;53.016;18.632;2022-10-29T06:17:52;100922.19;;;13.10;100.00
36380;BME280;22411;53.016;18.632;2022-10-29T06:20:20;100931.31;;;13.16;100.00
36380;BME280;22411;53.016;18.632;2022-10-29T06:22:54;100941.09;;;13.25;100.00
36380;BME280;22411;53.016;18.632;2022-10-29T06:25:22;100940.53;;;13.32;100.00
36380;BME280;22411;53.016;18.632;2022-10-29T06:28:03;100946.63;;;13.44;100.00
36380;BME280;22411;53.016;18.632;2022-10-29T06:30:30;100953.16;;;13.50;100.00
36380;BME280;22411;53.016;18.632;2022-10-29T06:32:56;100960.28;;;13.59;100.00
36380;BME280;22411;53.016;18.632;2022-10-29T06:35:24;100959.13;;;13.63;100.00
36380;BME280;22411;53.016;18.632;2022-10-29T06:37:50;100969.31;;;13.66;100.00
36380;BME280;22411;53.016;18.632;2022-10-29T06:40:16;100961.16;;;13.71;100.00
36380;BME280;22411;53.016;18.632;2022-10-29T06:42:43;100957.84;;;13.69;100.00
36380;BME280;22411;53.016;18.632;2022-10-29T06:45:10;100968.88;;;13.72;100.00
36380;BME280;22411;53.016;18.632;2022-10-29T06:47:40;100975.13;;;13.70;100.00
36380;BME280;22411;53.016;18.632;2022-10-29T06:50:08;100977.72;;;13.70;100.00
36380;BME280;22411;53.016;18.632;2022-10-29T06:52:34;100977.88;;;13.79;100.00
36380;BME280;22411;53.016;18.632;2022-10-29T06:55:00;100984.88;;;13.79;100.00
36380;BME280;22411;53.016;18.632;2022-10-29T06:57:30;100986.53;;;13.80;100.00
36380;BME280;22411;53.016;18.632;2022-10-29T06:59:56;100987.47;;;13.79;100.00
36380;BME280;22411;53.016;18.632;2022-10-29T07:02:22;100979.31;;;13.83;100.00
36380;BME280;22411;53.016;18.632;2022-10-29T07:04:48;100975.06;;;13.82;100.00
36380;BME280;22411;53.016;18.632;2022-10-29T07:07:15;100978.63;;;13.81;100.00
36380;BME280;22411;53.016;18.632;2022-10-29T07:09:41;100975.41;;;13.89;100.00
36380;BME280;22411;53.016;18.632;2022-10-29T07:12:10;100962.06;;;13.94;100.00
36380;BME280;22411;53.016;18.632;2022-10-29T07:14:36;100971.31;;;13.98;100.00
36380;BME280;22411;53.016;18.632;2022-10-29T07:17:02;100966.34;;;14.06;100.00
36380;BME280;22411;53.016;18.632;2022-10-29T07:19:28;100968.72;;;14.09;100.00
36380;BME280;22411;53.016;18.632;2022-10-29T07:21:53;100970.59;;;14.07;100.00
36380;BME280;22411;53.016;18.632;2022-10-29T07:24:19;100977.94;;;14.13;100.00
36380;BME280;22411;53.016;18.632;2022-10-29T07:26:46;100973.00;;;14.21;100.00
36380;BME280;22411;53.016;18.632;2022-10-29T07:29:12;100976.44;;;14.22;100.00
36380;BME280;22411;53.016;18.632;2022-10-29T07:31:38;100980.34;;;14.27;100.00
36380;BME280;22411;53.016;18.632;2022-10-29T07:34:04;100977.16;;;14.35;100.00
36380;BME280;22411;53.016;18.632;2022-10-29T07:36:30;100974.56;;;14.46;100.00
36380;BME280;22411;53.016;18.632;2022-10-29T07:38:56;100986.19;;;14.53;100.00
36380;BME280;22411;53.016;18.632;2022-10-29T07:41:22;100988.44;;;14.58;100.00
36380;BME280;22411;53.016;18.632;2022-10-29T07:43:48;100988.69;;;14.66;100.00
36380;BME280;22411;53.016;18.632;2022-10-29T07:46:14;100984.53;;;14.75;100.00
36380;BME280;22411;53.016;18.632;2022-10-29T07:48:39;100980.84;;;14.77;100.00
36380;BME280;22411;53.016;18.632;2022-10-29T07:51:05;100983.94;;;14.82;100.00
36380;BME280;22411;53.016;18.632;2022-10-29T07:53:31;100975.97;;;14.84;100.00
36380;BME280;22411;53.016;18.632;2022-10-29T07:55:58;100969.44;;;14.89;100.00
36380;BME280;22411;53.016;18.632;2022-10-29T07:58:25;100968.97;;;14.96;100.00
36380;BME280;22411;53.016;18.632;2022-10-29T08:00:51;100969.09;;;14.94;100.00
36380;BME280;22411;53.016;18.632;2022-10-29T08:03:17;100976.09;;;14.94;100.00
36380;BME280;22411;53.016;18.632;2022-10-29T08:05:43;100984.00;;;14.92;100.00
36380;BME280;22411;53.016;18.632;2022-10-29T08:08:11;100985.34;;;14.86;100.00
36380;BME280;22411;53.016;18.632;2022-10-29T08:10:38;100995.41;;;14.91;100.00
36380;BME280;22411;53.016;18.632;2022-10-29T08:13:05;100991.75;;;14.94;100.00
36380;BME280;22411;53.016;18.632;2022-10-29T08:15:33;100980.81;;;15.00;100.00
36380;BME280;22411;53.016;18.632;2022-10-29T08:18:00;100998.25;;;14.99;100.00
36380;BME280;22411;53.016;18.632;2022-10-29T08:20:27;100992.69;;;15.04;100.00
36380;BME280;22411;53.016;18.632;2022-10-29T08:22:54;101007.84;;;15.10;100.00
36380;BME280;22411;53.016;18.632;2022-10-29T08:25:21;101024.31;;;15.22;100.00
36380;BME280;22411;53.016;18.632;2022-10-29T08:28:01;101024.91;;;15.25;100.00
36380;BME280;22411;53.016;18.632;2022-10-29T08:30:29;101024.19;;;15.34;100.00
36380;BME280;22411;53.016;18.632;2022-10-29T08:32:57;101015.25;;;15.37;100.00
36380;BME280;22411;53.016;18.632;2022-10-29T08:35:24;101018.19;;;15.43;100.00
36380;BME280;22411;53.016;18.632;2022-10-29T08:37:50;101016.78;;;15.51;100.00
36380;BME280;22411;53.016;18.632;2022-10-29T08:45:50;101012.16;;;16.38;100.00
36380;BME280;22411;53.016;18.632;2022-10-29T08:48:34;101009.47;;;17.30;100.00
36380;BME280;22411;53.016;18.632;2022-10-29T08:53:51;101030.44;;;17.97;100.00
36380;BME280;22411;53.016;18.632;2022-10-29T08:56:21;101039.03;;;17.90;100.00
36380;BME280;22411;53.016;18.632;2022-10-29T08:59:00;101042.16;;;17.64;100.00
36380;BME280;22411;53.016;18.632;2022-10-29T09:01:29;101035.34;;;17.23;100.00
36380;BME280;22411;53.016;18.632;2022-10-29T09:03:57;101041.78;;;16.99;100.00
36380;BME280;22411;53.016;18.632;2022-10-29T09:15:15;101068.72;;;16.60;100.00
36380;BME280;22411;53.016;18.632;2022-10-29T09:18:04;101080.09;;;16.49;100.00
36380;BME280;22411;53.016;18.632;2022-10-29T09:26:25;101068.13;;;17.87;100.00
36380;BME280;22411;53.016;18.632;2022-10-29T09:34:46;101058.63;;;17.07;100.00
36380;BME280;22411;53.016;18.632;2022-10-29T09:37:17;101075.16;;;16.77;100.00
36380;BME280;22411;53.016;18.632;2022-10-29T09:39:45;101060.44;;;16.55;100.00
36380;BME280;22411;53.016;18.632;2022-10-29T09:42:26;101060.81;;;16.50;100.00
36380;BME280;22411;53.016;18.632;2022-10-29T09:44:57;101065.31;;;16.38;100.00
36380;BME280;22411;53.016;18.632;2022-10-29T09:50:18;101060.97;;;16.28;100.00
36380;BME280;22411;53.016;18.632;2022-10-29T09:52:51;101064.78;;;16.44;100.00
36380;BME280;22411;53.016;18.632;2022-10-29T09:55:32;101056.97;;;16.75;100.00
36380;BME280;22411;53.016;18.632;2022-10-29T09:57:59;101057.47;;;16.90;100.00
36380;BME280;22411;53.016;18.632;2022-10-29T10:00:29;101045.66;;;17.05;100.00
36380;BME280;22411;53.016;18.632;2022-10-29T10:03:12;101069.38;;;18.02;100.00
36380;BME280;22411;53.016;18.632;2022-10-29T10:06:01;101064.28;;;19.04;100.00
36380;BME280;22411;53.016;18.632;2022-10-29T10:08:28;101057.44;;;19.92;100.00
36380;BME280;22411;53.016;18.632;2022-10-29T10:11:02;101058.66;;;19.80;100.00
36380;BME280;22411;53.016;18.632;2022-10-29T10:13:37;101063.72;;;19.73;100.00
36380;BME280;22411;53.016;18.632;2022-10-29T10:16:22;101062.88;;;20.60;100.00
36380;BME280;22411;53.016;18.632;2022-10-29T10:18:49;101063.13;;;20.49;100.00
36380;BME280;22411;53.016;18.632;2022-10-29T10:23:54;101078.78;;;20.07;100.00
36380;BME280;22411;53.016;18.632;2022-10-29T10:26:26;101082.44;;;20.58;100.00
36380;BME280;22411;53.016;18.632;2022-10-29T10:36:55;101081.13;;;18.74;100.00
36380;BME280;22411;53.016;18.632;2022-10-29T10:39:26;101086.56;;;18.43;100.00
36380;BME280;22411;53.016;18.632;2022-10-29T10:41:57;101073.88;;;18.29;100.00
36380;BME280;22411;53.016;18.632;2022-10-29T10:44:26;101079.28;;;18.27;100.00
36380;BME280;22411;53.016;18.632;2022-10-29T10:46:53;101093.22;;;18.38;100.00
36380;BME280;22411;53.016;18.632;2022-10-29T10:49:35;101081.94;;;17.79;100.00
36380;BME280;22411;53.016;18.632;2022-10-29T10:52:20;101087.13;;;17.69;100.00
36380;BME280;22411;53.016;18.632;2022-10-29T11:00:55;101077.06;;;17.65;100.00
36380;BME280;22411;53.016;18.632;2022-10-29T11:03:29;101076.13;;;17.85;100.00
36380;BME280;22411;53.016;18.632;2022-10-29T11:06:05;101071.41;;;18.08;100.00
36380;BME280;22411;53.016;18.632;2022-10-29T11:11:16;101086.66;;;18.61;100.00
36380;BME280;22411;53.016;18.632;2022-10-29T11:13:44;101089.41;;;18.79;100.00
36380;BME280;22411;53.016;18.632;2022-10-29T11:16:15;101077.06;;;19.80;100.00
36380;BME280;22411;53.016;18.632;2022-10-29T11:19:04;101087.44;;;20.69;100.00
36380;BME280;22411;53.016;18.632;2022-10-29T11:21:36;101087.47;;;20.25;100.00
36380;BME280;22411;53.016;18.632;2022-10-29T11:24:13;101075.34;;;20.32;100.00
36380;BME280;22411;53.016;18.632;2022-10-29T11:26:46;101078.38;;;20.63;100.00
36380;BME280;22411;53.016;18.632;2022-10-29T11:29:15;101082.19;;;21.11;100.00
36380;BME280;22411;53.016;18.632;2022-10-29T11:31:59;101082.41;;;22.81;99.71
36380;BME280;22411;53.016;18.632;2022-10-29T11:37:36;101087.16;;;23.33;91.48
36380;BME280;22411;53.016;18.632;2022-10-29T11:40:21;101085.78;;;23.91;88.90
36380;BME280;22411;53.016;18.632;2022-10-29T11:42:48;101093.47;;;23.63;89.62
36380;BME280;22411;53.016;18.632;2022-10-29T11:45:19;101080.50;;;22.59;96.70
36380;BME280;22411;53.016;18.632;2022-10-29T11:48:12;101081.56;;;23.28;91.56
36380;BME280;22411;53.016;18.632;2022-10-29T12:02:08;101084.44;;;20.64;100.00
36380;BME280;22411;53.016;18.632;2022-10-29T12:04:57;101088.41;;;19.35;100.00
36380;BME280;22411;53.016;18.632;2022-10-29T12:10:09;101067.44;;;18.70;100.00
36380;BME280;22411;53.016;18.632;2022-10-29T12:12:52;101064.72;;;18.99;100.00
36380;BME280;22411;53.016;18.632;2022-10-29T12:15:37;101074.91;;;19.30;100.00
36380;BME280;22411;53.016;18.632;2022-10-29T12:21:00;101073.84;;;20.56;100.00
36380;BME280;22411;53.016;18.632;2022-10-29T12:26:14;101070.66;;;20.70;100.00
36380;BME280;22411;53.016;18.632;2022-10-29T12:28:57;101077.69;;;20.18;100.00
36380;BME280;22411;53.016;18.632;2022-10-29T12:31:57;101071.28;;;20.64;100.00
36380;BME280;22411;53.016;18.632;2022-10-29T12:40:03;101066.78;;;19.69;100.00
36380;BME280;22411;53.016;18.632;2022-10-29T12:42:32;101063.75;;;19.46;100.00
36380;BME280;22411;53.016;18.632;2022-10-29T12:47:44;101067.50;;;18.51;100.00
36380;BME280;22411;53.016;18.632;2022-10-29T12:55:38;101069.38;;;17.92;100.00
36380;BME280;22411;53.016;18.632;2022-10-29T13:01:42;101059.22;;;17.39;100.00
36380;BME280;22411;53.016;18.632;2022-10-29T13:04:29;101058.16;;;17.42;100.00
36380;BME280;22411;53.016;18.632;2022-10-29T13:07:01;101059.66;;;17.35;100.00
36380;BME280;22411;53.016;18.632;2022-10-29T13:09:30;101037.84;;;17.24;100.00
36380;BME280;22411;53.016;18.632;2022-10-29T13:11:59;101043.75;;;17.17;100.00
36380;BME280;22411;53.016;18.632;2022-10-29T13:16:55;101045.25;;;17.10;100.00
36380;BME280;22411;53.016;18.632;2022-10-29T13:21:59;101046.06;;;17.01;100.00
36380;BME280;22411;53.016;18.632;2022-10-29T13:24:26;101048.50;;;16.92;100.00
36380;BME280;22411;53.016;18.632;2022-10-29T13:27:04;101053.59;;;16.84;100.00
36380;BME280;22411;53.016;18.632;2022-10-29T13:29:47;101051.50;;;16.78;100.00
36380;BME280;22411;53.016;18.632;2022-10-29T13:32:35;101059.28;;;16.68;100.00
36380;BME280;22411;53.016;18.632;2022-10-29T13:35:03;101073.44;;;16.66;100.00
36380;BME280;22411;53.016;18.632;2022-10-29T13:43:11;101062.81;;;16.58;100.00
36380;BME280;22411;53.016;18.632;2022-10-29T13:45:42;101065.41;;;16.58;100.00
36380;BME280;22411;53.016;18.632;2022-10-29T13:48:34;101076.84;;;16.57;100.00
36380;BME280;22411;53.016;18.632;2022-10-29T13:51:06;101076.97;;;16.55;100.00
36380;BME280;22411;53.016;18.632;2022-10-29T13:53:47;101072.25;;;16.49;100.00
36380;BME280;22411;53.016;18.632;2022-10-29T13:56:32;101079.41;;;16.47;100.00
36380;BME280;22411;53.016;18.632;2022-10-29T13:59:01;101076.47;;;16.40;100.00
36380;BME280;22411;53.016;18.632;2022-10-29T14:01:31;101075.91;;;16.37;100.00
36380;BME280;22411;53.016;18.632;2022-10-29T14:04:03;101084.56;;;16.37;100.00
36380;BME280;22411;53.016;18.632;2022-10-29T14:06:37;101076.03;;;16.35;100.00
36380;BME280;22411;53.016;18.632;2022-10-29T14:09:21;101081.50;;;16.32;100.00
36380;BME280;22411;53.016;18.632;2022-10-29T14:12:02;101082.16;;;16.25;100.00
36380;BME280;22411;53.016;18.632;2022-10-29T14:15:10;101082.66;;;16.18;100.00
36380;BME280;22411;53.016;18.632;2022-10-29T14:17:40;101092.19;;;16.19;100.00
36380;BME280;22411;53.016;18.632;2022-10-29T14:20:27;101080.69;;;16.11;100.00
36380;BME280;22411;53.016;18.632;2022-10-29T14:23:06;101092.34;;;16.07;100.00
36380;BME280;22411;53.016;18.632;2022-10-29T14:25:34;101089.72;;;16.07;100.00
36380;BME280;22411;53.016;18.632;2022-10-29T14:28:27;101085.25;;;15.98;100.00
36380;BME280;22411;53.016;18.632;2022-10-29T14:31:26;101090.97;;;15.91;100.00
36380;BME280;22411;53.016;18.632;2022-10-29T14:33:55;101084.69;;;15.94;100.00
36380;BME280;22411;53.016;18.632;2022-10-29T14:36:30;101089.47;;;15.89;100.00
36380;BME280;22411;53.016;18.632;2022-10-29T14:39:49;101083.56;;;15.76;100.00
36380;BME280;22411;53.016;18.632;2022-10-29T14:42:37;101086.31;;;15.74;100.00
36380;BME280;22411;53.016;18.632;2022-10-29T14:48:01;101090.84;;;15.72;100.00
36380;BME280;22411;53.016;18.632;2022-10-29T14:50:35;101099.88;;;15.68;100.00
36380;BME280;22411;53.016;18.632;2022-10-29T14:53:04;101090.94;;;15.59;100.00
36380;BME280;22411;53.016;18.632;2022-10-29T14:55:36;101097.00;;;15.60;100.00
36380;BME280;22411;53.016;18.632;2022-10-29T14:58:17;101102.56;;;15.55;100.00
36380;BME280;22411;53.016;18.632;2022-10-29T15:00:56;101092.38;;;15.52;100.00